Salinas Da Margarida, Brazil
Current Conditions -  °F | °C
As of 3:00 PM on Friday 26 Dec 2014 (Local Time) from SBSV Reporting Station
Broken Clouds Broken Clouds  
Wind Chill: 81°   Ceiling: 7000
Heat Index: 83°   Visibility: 6mi
Dew Point: 68°   Wind: 15mph
Humidity: 65%   Direction: 140°SE
Pressure: 30"   Gusts: NA
Location:  12.88°S, 38.76°W
Report Text: SBSV 261800Z 14013KT 9999 SCT015 FEW020TCU BKN070 27/20 Q1016
Loading
Personal Weather Stations






























Interactive Weather Map New forecast layout! Learn more

10-Day Weather Forecast

Advertisements
Track Severe Weather on mobile